• Join FlightAware (Why Join?)
  • Login
  • US Flag 
09:29AM EDT


 

Airport Tracker/Info


-or-


 

Live Flight TrackerFlight Track Log ✈ UAL4422 ✈ 13-Apr-2013 ✈ KIAH - KMAF

Flight Track Log - Related Links

Times and Time Zones

All times are in EDT time to prevent confusion due to time zone crossing. See the UAL4422 flight status page for this flight to view local times or setup timezone preferences in your user account.

Time Position Orientation Groundspeed Altitude Reporting Facility
EDT Latitude Longitude Course Direction KTS MPH feet Rate Location/Type
04:31PM 30.0361 -95.8335 276° West  Level FlightAware Approximate
04:32PM 30.0466 -95.9593 276° West  Level FlightAware Approximate
04:33PM 30.0696 -96.0817 276° West  Level FlightAware Approximate
04:34PM 30.0810 -96.2075 276° West  Level FlightAware Approximate
04:35PM 30.1035 -96.3246 279° West  Level FlightAware Approximate
04:36PM 30.1214 -96.4494 279° West  Level FlightAware Approximate
04:37PM 30.1396 -96.5741 280° West  Level FlightAware Approximate
04:38PM 30.1588 -96.6986 280° West  Level FlightAware Approximate
04:39PM 30.1812 -96.8225 283° West  Level FlightAware Approximate
04:40PM 30.2000 -96.9465 270° West  Level FlightAware Approximate
04:41PM 30.2171 -97.0695 280° West  Level FlightAware Approximate
04:42PM 30.2363 -97.1941 280° West  Level FlightAware Approximate
04:43PM 30.2559 -97.3187 281° West  Level FlightAware Approximate
04:44PM 30.2722 -97.4439 276° West  Level FlightAware Approximate
04:45PM 30.2838 -97.5698 280° West  Level FlightAware Approximate
04:46PM 30.3036 -97.6944 280° West  Level FlightAware Approximate
04:47PM 30.3232 -97.8191 280° West  Level FlightAware Approximate
04:48PM 30.3410 -97.9441 278° West  Level FlightAware Approximate
04:49PM 30.3584 -98.0693 280° West  Level FlightAware Approximate
04:50PM 30.3781 -98.1940 280° West  Level FlightAware Approximate
04:51PM 30.3977 -98.3187 280° West  Level FlightAware Approximate
04:52PM 30.4149 -98.4440 279° West  Level FlightAware Approximate
04:53PM 30.4317 -98.5694 279° West  Level FlightAware Approximate
04:54PM 30.4484 -98.6948 279° West  Level FlightAware Approximate
04:55PM 30.4649 -98.8202 279° West  Level FlightAware Approximate
04:56PM 30.4813 -98.9457 279° West  Level FlightAware Approximate
04:57PM 30.4976 -99.0712 279° West  Level FlightAware Approximate
04:58PM 30.5138 -99.1968 279° West  Level FlightAware Approximate
04:59PM 30.5298 -99.3224 278° West  Level FlightAware Approximate
05:00PM 30.5440 -99.4484 277° West  Level FlightAware Approximate
05:01PM 30.5576 -99.5744 277° West  Level FlightAware Approximate
05:02PM 30.5711 -99.7005 277° West  Level FlightAware Approximate
05:03PM 30.5906 -99.8222 327° Northwest  Level FlightAware Approximate
05:04PM 30.6821 -99.8917 327° Northwest  Level FlightAware Approximate
05:05PM 30.7737 -99.9614 327° Northwest  Level FlightAware Approximate
05:06PM 30.8652 -100.0312 327° Northwest  Level FlightAware Approximate
05:07PM 30.9564 -100.1017 326° Northwest  Level FlightAware Approximate
05:08PM 31.0466 -100.1738 326° Northwest  Level FlightAware Approximate
05:09PM 31.1368 -100.2460 326° Northwest  Level FlightAware Approximate
05:10PM 31.2159 -100.3244 327° Northwest  Level FlightAware Approximate
05:11PM 31.3056 -100.3976 324° Northwest  Level FlightAware Approximate
05:12PM 31.3837 -100.4841 300° West  Level FlightAware Approximate
05:13PM 31.4245 -100.6024 289° West  Level FlightAware Approximate
05:14PM 31.4727 -100.7169 293° West  Level FlightAware Approximate
05:15PM 31.5146 -100.8354 293° West  Level FlightAware Approximate
05:16PM 31.5564 -100.9541 292° West  Level FlightAware Approximate
05:17PM 31.5991 -101.0723 293° West  Level FlightAware Approximate
05:18PM 31.6421 -101.1904 293° West  Level FlightAware Approximate
05:19PM 31.6850 -101.3086 293° West  Level FlightAware Approximate
05:20PM 31.7260 -101.4278 291° West  Level FlightAware Approximate
05:21PM 31.7759 -101.5420 293° West  Level FlightAware Approximate
05:22PM 31.8189 -101.6603 293° West  Level FlightAware Approximate
05:23PM 31.8616 -101.7789 293° West  Level FlightAware Approximate
05:24PM 31.9040 -101.8977 293° West  Level FlightAware Approximate
05:25PM 31.9422 -102.0184 290° West  Level FlightAware Approximate
05:26PM 31.9849 -102.1365 301° West  Level FlightAware Approximate
05:27PM 31.9363 -102.1990 196° South  Level FlightAware Approximate
05:28PM 31.9333 -102.2000 196° South  Level FlightAware Approximate
05:29PM 31.9425 -102.2019 196° South  Level Estimated
05:30PM 31.9425 -102.2019 196° South  Level Estimated
05:31PM 31.9425 -102.2019 196° South  Level Estimated
05:32PM 31.9425 -102.2019 196° South  Level Estimated
05:33PM 31.9425 -102.2019 196° South  Level Estimated